Time;durP1;ratioP1;P1;durP2;ratioP2;P2;SDS_P1;SDS_P2;PMS_P1;PMS_P2;Temp;Humidity;BMP_temperature;BMP_pressure;BME280_temperature;BME280_humidity;BME280_pressure;Samples;Min_cycle;Max_cycle;Signal;HPM_P1;HPM_P2
2023/04/20 00:02:09;;;;;;;3.6;3.3;;;;;;;;;;;;;
2023/04/20 00:04:35;;;;;;;3.6;3;;;;;;;;;;;;;
2023/04/20 00:07:03;;;;;;;4.1;3.4;;;;;;;;;;;;;
2023/04/20 00:09:28;;;;;;;4;3.6;;;;;;;;;;;;;
2023/04/20 00:11:53;;;;;;;3.8;3.3;;;;;;;;;;;;;
2023/04/20 00:14:18;;;;;;;4.2;3.2;;;;;;;;;;;;;
2023/04/20 00:16:43;;;;;;;3;2.7;;;;;;;;;;;;;
2023/04/20 00:19:08;;;;;;;3.5;3.2;;;;;;;;;;;;;
2023/04/20 00:21:34;;;;;;;3.2;2.9;;;;;;;;;;;;;
2023/04/20 00:24:00;;;;;;;3.3;2.4;;;;;;;;;;;;;
2023/04/20 00:26:25;;;;;;;5.1;2.9;;;;;;;;;;;;;
2023/04/20 00:28:50;;;;;;;3.4;2.5;;;;;;;;;;;;;
2023/04/20 00:31:17;;;;;;;3.9;3.2;;;;;;;;;;;;;
2023/04/20 00:33:42;;;;;;;3;2.7;;;;;;;;;;;;;
2023/04/20 00:36:08;;;;;;;2.9;2.6;;;;;;;;;;;;;
2023/04/20 00:38:33;;;;;;;3.1;2.8;;;;;;;;;;;;;
2023/04/20 00:40:59;;;;;;;3.9;3.6;;;;;;;;;;;;;
2023/04/20 00:43:24;;;;;;;3.2;2.9;;;;;;;;;;;;;
2023/04/20 00:45:50;;;;;;;3.2;2.8;;;;;;;;;;;;;
2023/04/20 00:48:14;;;;;;;2.8;2.5;;;;;;;;;;;;;
2023/04/20 00:50:39;;;;;;;2.9;2.6;;;;;;;;;;;;;
2023/04/20 00:53:05;;;;;;;3;2.4;;;;;;;;;;;;;
2023/04/20 00:55:30;;;;;;;3.8;2.9;;;;;;;;;;;;;
2023/04/20 00:57:55;;;;;;;3;2.7;;;;;;;;;;;;;
2023/04/20 01:00:21;;;;;;;2.9;2.6;;;;;;;;;;;;;
2023/04/20 01:02:46;;;;;;;4.1;2.8;;;;;;;;;;;;;
2023/04/20 01:05:12;;;;;;;3.1;2.8;;;;;;;;;;;;;
2023/04/20 01:07:36;;;;;;;3.4;3;;;;;;;;;;;;;
2023/04/20 01:10:03;;;;;;;3.4;3.1;;;;;;;;;;;;;
2023/04/20 01:12:28;;;;;;;3.1;2.8;;;;;;;;;;;;;
2023/04/20 01:14:53;;;;;;;3.6;3.2;;;;;;;;;;;;;
2023/04/20 01:17:19;;;;;;;3;2.7;;;;;;;;;;;;;
2023/04/20 01:19:45;;;;;;;3.4;3.1;;;;;;;;;;;;;
2023/04/20 01:22:09;;;;;;;3.7;3.1;;;;;;;;;;;;;
2023/04/20 01:24:35;;;;;;;3.5;3.2;;;;;;;;;;;;;
2023/04/20 01:27:00;;;;;;;3.3;3;;;;;;;;;;;;;
2023/04/20 01:29:27;;;;;;;3.3;3;;;;;;;;;;;;;
2023/04/20 01:31:52;;;;;;;3;2.8;;;;;;;;;;;;;
2023/04/20 01:34:18;;;;;;;2.9;2.6;;;;;;;;;;;;;
2023/04/20 01:36:43;;;;;;;3.5;3.2;;;;;;;;;;;;;
2023/04/20 01:39:09;;;;;;;2.8;2.6;;;;;;;;;;;;;
2023/04/20 01:41:34;;;;;;;3;2.7;;;;;;;;;;;;;
2023/04/20 01:43:59;;;;;;;3.7;2.8;;;;;;;;;;;;;
2023/04/20 01:46:24;;;;;;;3.1;2.8;;;;;;;;;;;;;
2023/04/20 01:48:51;;;;;;;3.1;2.6;;;;;;;;;;;;;
2023/04/20 01:51:16;;;;;;;3;2.7;;;;;;;;;;;;;
2023/04/20 01:53:41;;;;;;;3.6;3;;;;;;;;;;;;;
2023/04/20 01:56:06;;;;;;;4.5;3;;;;;;;;;;;;;
2023/04/20 01:58:33;;;;;;;3.2;2.7;;;;;;;;;;;;;
2023/04/20 02:00:58;;;;;;;3.5;2.7;;;;;;;;;;;;;
2023/04/20 02:03:24;;;;;;;2.8;2.6;;;;;;;;;;;;;
2023/04/20 02:05:49;;;;;;;3.3;2.6;;;;;;;;;;;;;
2023/04/20 02:08:16;;;;;;;2.9;2.6;;;;;;;;;;;;;
2023/04/20 02:10:41;;;;;;;3;2.7;;;;;;;;;;;;;
2023/04/20 02:13:08;;;;;;;2.9;2.4;;;;;;;;;;;;;
2023/04/20 02:15:33;;;;;;;3.5;2.7;;;;;;;;;;;;;
2023/04/20 02:17:58;;;;;;;3.4;3.1;;;;;;;;;;;;;
2023/04/20 02:20:23;;;;;;;4.5;3.4;;;;;;;;;;;;;
2023/04/20 02:22:49;;;;;;;4.7;4.2;;;;;;;;;;;;;
2023/04/20 02:25:13;;;;;;;5.3;4.4;;;;;;;;;;;;;
2023/04/20 02:27:38;;;;;;;5.1;4.6;;;;;;;;;;;;;
2023/04/20 02:30:04;;;;;;;5.7;4.7;;;;;;;;;;;;;
2023/04/20 02:32:29;;;;;;;5.5;4.8;;;;;;;;;;;;;
2023/04/20 02:34:55;;;;;;;6.5;5.8;;;;;;;;;;;;;
2023/04/20 02:37:20;;;;;;;6.4;5.5;;;;;;;;;;;;;
2023/04/20 02:39:46;;;;;;;6.5;5.6;;;;;;;;;;;;;
2023/04/20 02:42:11;;;;;;;5.1;4.4;;;;;;;;;;;;;
2023/04/20 02:44:37;;;;;;;5.1;4.6;;;;;;;;;;;;;
2023/04/20 02:47:02;;;;;;;6.4;5.2;;;;;;;;;;;;;
2023/04/20 02:49:28;;;;;;;5;4.3;;;;;;;;;;;;;
2023/04/20 02:51:53;;;;;;;5.4;4.3;;;;;;;;;;;;;
2023/04/20 02:54:18;;;;;;;4.3;3.8;;;;;;;;;;;;;
2023/04/20 02:56:43;;;;;;;4;3.4;;;;;;;;;;;;;
2023/04/20 02:59:09;;;;;;;4;3.6;;;;;;;;;;;;;
2023/04/20 03:01:34;;;;;;;4.1;3.4;;;;;;;;;;;;;
2023/04/20 03:03:59;;;;;;;3.5;3.2;;;;;;;;;;;;;
2023/04/20 03:06:25;;;;;;;3.3;3;;;;;;;;;;;;;
2023/04/20 03:08:50;;;;;;;4.7;3.6;;;;;;;;;;;;;
2023/04/20 03:11:16;;;;;;;4.4;3.5;;;;;;;;;;;;;
2023/04/20 03:13:42;;;;;;;4.2;3.7;;;;;;;;;;;;;
2023/04/20 03:16:07;;;;;;;4.2;3.8;;;;;;;;;;;;;
2023/04/20 03:18:32;;;;;;;4.1;3.7;;;;;;;;;;;;;
2023/04/20 03:20:57;;;;;;;3.6;2.7;;;;;;;;;;;;;
2023/04/20 03:23:22;;;;;;;3.8;3.2;;;;;;;;;;;;;
2023/04/20 03:25:47;;;;;;;3.9;3.5;;;;;;;;;;;;;
2023/04/20 03:28:13;;;;;;;5;4.4;;;;;;;;;;;;;
2023/04/20 03:30:38;;;;;;;4.7;4.1;;;;;;;;;;;;;
2023/04/20 03:33:05;;;;;;;4;3.6;;;;;;;;;;;;;
2023/04/20 03:35:30;;;;;;;5.4;4.3;;;;;;;;;;;;;
2023/04/20 03:37:55;;;;;;;4.6;4;;;;;;;;;;;;;
2023/04/20 03:40:20;;;;;;;4.4;4;;;;;;;;;;;;;
2023/04/20 03:42:47;;;;;;;6.1;4.7;;;;;;;;;;;;;
2023/04/20 03:45:12;;;;;;;4.9;4.4;;;;;;;;;;;;;
2023/04/20 03:47:38;;;;;;;5.8;5.2;;;;;;;;;;;;;
2023/04/20 03:50:03;;;;;;;5.5;4.9;;;;;;;;;;;;;
2023/04/20 03:52:28;;;;;;;6.8;5.5;;;;;;;;;;;;;
2023/04/20 03:54:53;;;;;;;6.8;5.6;;;;;;;;;;;;;
2023/04/20 03:57:20;;;;;;;6.7;6;;;;;;;;;;;;;
2023/04/20 03:59:45;;;;;;;6.4;5.4;;;;;;;;;;;;;
2023/04/20 04:02:34;;;;;;;5.7;5.1;;;;;;;4.93;91.99316;932.9534;;;;
2023/04/20 04:04:59;;;;;;;6.5;5.4;;;;;;;4.87;92.09375;933.0128;;;;
2023/04/20 04:10:55;;;;;;;6.8;6.1;;;;;;;4.71;92.88086;932.9655;;;;
2023/04/20 04:13:24;;;;;;;7.4;6.6;;;;;;;4.69;93.12695;932.8903;;;;
2023/04/20 04:15:49;;;;;;;7.7;6.8;;;;;;;4.73;93.52734;932.9835;;;;
2023/04/20 04:18:14;;;;;;;7.6;6.5;;;;;;;4.88;93.01953;932.9451;;;;
2023/04/20 04:20:40;;;;;;;7.1;6.4;;;;;;;4.87;92.62402;932.9576;;;;
2023/04/20 04:23:06;;;;;;;9.4;6.9;;;;;;;4.84;92.75098;932.9293;;;;
2023/04/20 04:25:31;;;;;;;8;6.7;;;;;;;4.91;92.70996;932.9403;;;;
2023/04/20 04:27:58;;;;;;;7.5;6.5;;;;;;;4.91;92.16895;932.9111;;;;
2023/04/20 04:30:23;;;;;;;8.4;6.9;;;;;;;4.89;92.1543;932.7916;;;;
2023/04/20 04:32:49;;;;;;;7.5;6.6;;;;;;;4.98;91.88086;932.8817;;;;
2023/04/20 04:35:14;;;;;;;6.9;6.2;;;;;;;4.98;91.86914;932.8817;;;;
2023/04/20 04:37:42;;;;;;;7.9;6.4;;;;;;;4.86;91.67285;932.8689;;;;
2023/04/20 04:40:08;;;;;;;8;6.6;;;;;;;4.65;93.2168;932.7861;;;;
2023/04/20 04:42:36;;;;;;;8.4;6.7;;;;;;;4.82;92.89551;932.7208;;;;
2023/04/20 04:45:02;;;;;;;8.3;6.7;;;;;;;4.92;92.72363;932.7195;;;;
2023/04/20 04:47:31;;;;;;;8.5;7.2;;;;;;;4.89;92.28906;932.767;;;;
2023/04/20 04:49:59;;;;;;;8.4;7.5;;;;;;;4.83;92.38867;932.7484;;;;
2023/04/20 04:52:22;;;;;;;8.9;7.5;;;;;;;4.8;92.49512;932.6749;;;;
2023/04/20 04:54:48;;;;;;;9;7.4;;;;;;;4.76;92.73535;932.6647;;;;
2023/04/20 04:57:14;;;;;;;9.7;7.6;;;;;;;4.83;92.90918;932.7099;;;;
2023/04/20 04:59:39;;;;;;;9.1;7.1;;;;;;;4.88;92.5918;932.6801;;;;
2023/04/20 05:02:05;;;;;;;9.4;8.3;;;;;;;4.72;92.88477;932.6283;;;;
2023/04/20 05:04:29;;;;;;;8.4;7.2;;;;;;;4.86;92.38281;932.6624;;;;
2023/04/20 05:06:57;;;;;;;6.9;5.9;;;;;;;4.82;92.81641;932.6513;;;;
2023/04/20 05:09:22;;;;;;;9.7;7.5;;;;;;;4.94;92.91016;932.6325;;;;
2023/04/20 05:11:50;;;;;;;8.3;6.9;;;;;;;5.04;92.50098;932.6498;;;;
2023/04/20 05:14:17;;;;;;;8.1;7;;;;;;;5.07;92.65527;932.6766;;;;
2023/04/20 05:16:42;;;;;;;8;7;;;;;;;5.1;92.4375;932.7269;;;;
2023/04/20 05:19:10;;;;;;;8.6;6.8;;;;;;;5.19;91.85742;932.6577;;;;
2023/04/20 05:21:36;;;;;;;8;6.6;;;;;;;5.17;91.42578;932.666;;;;
2023/04/20 05:24:06;;;;;;;7.7;6.6;;;;;;;5.12;91.70703;932.6672;;;;
2023/04/20 05:29:38;;;;;;;6.2;5.2;;;;;;;5.18;91.16797;932.6566;;;;
2023/04/20 05:32:03;;;;;;;5.9;5.3;;;;;;;5.22;91.61719;932.5789;;;;
2023/04/20 05:34:28;;;;;;;5.3;4.6;;;;;;;5.26;91.74902;932.6144;;;;
2023/04/20 05:36:53;;;;;;;6;4.8;;;;;;;5.18;91.85547;932.6234;;;;
2023/04/20 05:39:22;;;;;;;6.1;5.5;;;;;;;5.28;91.68555;932.6219;;;;
2023/04/20 05:41:47;;;;;;;8.8;6.5;;;;;;;5.37;91.5127;932.5747;;;;
2023/04/20 05:44:13;;;;;;;7.5;6.7;;;;;;;5.42;90.83398;932.467;;;;
2023/04/20 05:46:39;;;;;;;7.4;6.4;;;;;;;5.47;91.15234;932.4048;;;;
2023/04/20 05:49:05;;;;;;;7.4;6.4;;;;;;;5.57;90.7207;932.4225;;;;
2023/04/20 05:51:32;;;;;;;9.3;7;;;;;;;5.63;90.71094;932.4136;;;;
2023/04/20 05:56:40;;;;;;;7.9;7.1;;;;;;;5.57;90.06738;932.4171;;;;
2023/04/20 05:59:07;;;;;;;7.7;6.9;;;;;;;5.58;90.14844;932.4874;;;;
2023/04/20 06:01:32;;;;;;;9.6;7.5;;;;;;;5.54;90.53418;932.5;;;;
2023/04/20 06:04:01;;;;;;;9.4;7.8;;;;;;;5.26;91.42188;932.3516;;;;
2023/04/20 06:06:27;;;;;;;8.6;6.9;;;;;;;5.46;91.87305;932.3865;;;;
2023/04/20 06:08:52;;;;;;;7.1;6.4;;;;;;;5.54;90.92871;932.4503;;;;
2023/04/20 06:11:16;;;;;;;8;6.4;;;;;;;5.67;91.125;932.4405;;;;
2023/04/20 06:13:41;;;;;;;6.3;5.5;;;;;;;5.85;90.14746;932.4889;;;;
2023/04/20 06:16:08;;;;;;;6.4;5.3;;;;;;;5.97;89.32715;932.4044;;;;
2023/04/20 06:18:34;;;;;;;6.9;6;;;;;;;6.14;89.08008;932.4313;;;;
2023/04/20 06:21:00;;;;;;;6.6;5.7;;;;;;;6.27;87.88574;932.4154;;;;
2023/04/20 06:23:30;;;;;;;5.6;5;;;;;;;6.37;87.38379;932.4683;;;;
2023/04/20 06:25:58;;;;;;;6.1;5;;;;;;;6.46;86.34082;932.4439;;;;
2023/04/20 06:28:23;;;;;;;6;5;;;;;;;6.55;85.81738;932.4255;;;;
2023/04/20 06:30:51;;;;;;;6.4;5.4;;;;;;;6.68;85.45801;932.3819;;;;
2023/04/20 06:33:17;;;;;;;6.6;5.6;;;;;;;6.81;85.35938;932.4266;;;;
2023/04/20 06:35:41;;;;;;;7.2;5.7;;;;;;;6.75;85.81055;932.4366;;;;
2023/04/20 06:38:08;;;;;;;6.8;5;;;;;;;6.82;84.65723;932.4489;;;;
2023/04/20 06:40:33;;;;;;;5.5;4.9;;;;;;;6.78;84.5957;932.4694;;;;
2023/04/20 06:43:00;;;;;;;5.4;4.7;;;;;;;6.76;84.52246;932.4786;;;;
2023/04/20 06:45:26;;;;;;;5.6;4.9;;;;;;;6.53;84.48926;932.5176;;;;
2023/04/20 06:47:53;;;;;;;5.1;4.6;;;;;;;6.54;84.90723;932.4427;;;;
2023/04/20 06:50:18;;;;;;;5.7;4.8;;;;;;;6.69;84.71289;932.3907;;;;
2023/04/20 06:52:47;;;;;;;5.6;5;;;;;;;6.91;84.06543;932.4937;;;;
2023/04/20 06:55:12;;;;;;;4.8;4.2;;;;;;;6.91;82.52441;932.4644;;;;
2023/04/20 06:57:42;;;;;;;4.5;3.9;;;;;;;6.96;82.17188;932.4579;;;;
2023/04/20 07:00:05;;;;;;;4.5;4.1;;;;;;;7.1;82.54004;932.4213;;;;
2023/04/20 07:02:29;;;;;;;6.9;4.1;;;;;;;7.31;82.46777;932.3695;;;;
2023/04/20 07:04:55;;;;;;;5;4.2;;;;;;;7.45;81.25879;932.3801;;;;
2023/04/20 07:07:22;;;;;;;4.2;3.8;;;;;;;7.3;81.83008;932.356;;;;
2023/04/20 07:09:47;;;;;;;4.3;3.9;;;;;;;7.26;80.97168;932.3578;;;;
2023/04/20 07:12:15;;;;;;;4.8;4.3;;;;;;;7.4;81.52051;932.3223;;;;
2023/04/20 07:14:39;;;;;;;4.1;3.7;;;;;;;7.25;80.84473;932.3212;;;;
2023/04/20 07:17:07;;;;;;;4.5;4.1;;;;;;;7.41;80.70605;932.3527;;;;
2023/04/20 07:19:37;;;;;;;4.3;3.5;;;;;;;7.3;80.08496;932.3353;;;;
2023/04/20 07:22:02;;;;;;;3.7;3.4;;;;;;;7.46;81.05469;932.3113;;;;
2023/04/20 07:24:51;;;;;;;4.4;3.2;;;;;;;7.44;81.74219;932.3444;;;;
2023/04/20 07:27:19;;;;;;;3.7;3.4;;;;;;;7.49;79.31543;932.3228;;;;
2023/04/20 07:29:44;;;;;;;4;3.4;;;;;;;7.6;79.07617;932.3193;;;;
2023/04/20 07:32:09;;;;;;;3.5;3.2;;;;;;;7.57;78.8877;932.2523;;;;
2023/04/20 07:34:35;;;;;;;3.8;3.3;;;;;;;7.56;77.89844;932.2491;;;;
2023/04/20 07:37:00;;;;;;;3.5;3.2;;;;;;;7.81;79.56641;932.3161;;;;
2023/04/20 07:39:29;;;;;;;3.6;3.3;;;;;;;8.07;79.38965;932.259;;;;
2023/04/20 07:41:52;;;;;;;3.3;3;;;;;;;8.24;78.72656;932.3083;;;;
2023/04/20 07:44:19;;;;;;;4.4;3.2;;;;;;;8.46;77.2793;932.3622;;;;
2023/04/20 07:46:44;;;;;;;3.3;3;;;;;;;8.58;76.6416;932.3203;;;;
2023/04/20 07:49:10;;;;;;;3.9;3.6;;;;;;;8.36;79.46582;932.3223;;;;
2023/04/20 07:51:35;;;;;;;3.3;3;;;;;;;8.32;75.9248;932.3747;;;;
2023/04/20 07:54:03;;;;;;;3.6;3.3;;;;;;;7.98;77.88379;932.3894;;;;
2023/04/20 07:56:28;;;;;;;3.2;2.9;;;;;;;8.09;77.22461;932.3511;;;;
2023/04/20 07:58:53;;;;;;;3.1;2.8;;;;;;;8.31;77.24023;932.3469;;;;
2023/04/20 08:01:18;;;;;;;3.1;2.7;;;;;;;8.56;76.55664;932.3478;;;;
2023/04/20 08:03:44;;;;;;;3;2.7;;;;;;;8.77;74.86523;932.2717;;;;
2023/04/20 08:06:09;;;;;;;2.7;2.5;;;;;;;9.13;74.05371;932.2569;;;;
2023/04/20 08:08:37;;;;;;;3;2.7;;;;;;;9.26;73.19824;932.2801;;;;
2023/04/20 08:11:02;;;;;;;3.8;2.7;;;;;;;8.95;74.68262;932.3065;;;;
2023/04/20 08:13:28;;;;;;;2.6;2.4;;;;;;;9.02;74.0918;932.3;;;;
2023/04/20 08:15:53;;;;;;;3.4;2.5;;;;;;;8.83;72.91016;932.3193;;;;
2023/04/20 08:18:20;;;;;;;3.2;2.9;;;;;;;8.93;72.53906;932.308;;;;
2023/04/20 08:20:46;;;;;;;2.6;2.4;;;;;;;9.05;72.49219;932.3653;;;;
2023/04/20 08:23:12;;;;;;;2.7;2.5;;;;;;;9.14;72.88086;932.3125;;;;
2023/04/20 08:25:36;;;;;;;2.4;2.2;;;;;;;8.79;74.16504;932.3036;;;;
2023/04/20 08:28:03;;;;;;;2.5;2.2;;;;;;;8.96;72.86328;932.3431;;;;
2023/04/20 08:30:28;;;;;;;2.4;2.2;;;;;;;8.65;73.03809;932.2726;;;;
2023/04/20 08:32:55;;;;;;;2.5;2.3;;;;;;;8.73;71.9375;932.2827;;;;
2023/04/20 08:35:20;;;;;;;2.4;2.2;;;;;;;8.91;71.95605;932.2673;;;;
2023/04/20 08:37:48;;;;;;;2.7;2.2;;;;;;;8.99;71.7207;932.2194;;;;
2023/04/20 08:40:13;;;;;;;3;2.7;;;;;;;8.91;74.0957;932.1189;;;;
2023/04/20 08:42:40;;;;;;;3.2;2.4;;;;;;;8.57;75.34277;932.1217;;;;
2023/04/20 08:45:05;;;;;;;3.2;2.3;;;;;;;8.32;74.23242;932.1797;;;;
2023/04/20 08:47:32;;;;;;;2.8;2.2;;;;;;;8.15;77.61816;932.2484;;;;
2023/04/20 08:49:57;;;;;;;3.3;2.2;;;;;;;8.37;76.47754;932.2327;;;;
2023/04/20 08:52:22;;;;;;;2.9;1.8;;;;;;;8.31;76.49121;932.2255;;;;
2023/04/20 08:54:47;;;;;;;2.6;1.8;;;;;;;8.54;76.00977;932.2493;;;;
2023/04/20 08:57:16;;;;;;;2.1;1.7;;;;;;;8.68;75.9082;932.1982;;;;
2023/04/20 08:59:41;;;;;;;1.8;1.7;;;;;;;8.63;74.2627;932.1447;;;;
2023/04/20 09:02:08;;;;;;;2.7;1.6;;;;;;;8.95;74.70508;932.2342;;;;
2023/04/20 09:04:33;;;;;;;1.6;1.5;;;;;;;9.26;73.44922;932.2483;;;;
2023/04/20 09:06:58;;;;;;;1.3;1.2;;;;;;;9.56;72.66797;932.2855;;;;
2023/04/20 09:09:24;;;;;;;1.2;1.1;;;;;;;9.55;71.25391;932.2433;;;;
2023/04/20 09:11:49;;;;;;;1.4;1.3;;;;;;;9.46;72.19629;932.3074;;;;
2023/04/20 09:14:16;;;;;;;1.4;1.3;;;;;;;9.31;72.39941;932.3359;;;;
2023/04/20 09:16:41;;;;;;;1.9;1.5;;;;;;;9.39;72.87891;932.3649;;;;
2023/04/20 09:19:06;;;;;;;1.6;1.5;;;;;;;9.47;73.4834;932.4044;;;;
2023/04/20 09:21:34;;;;;;;1.4;1.3;;;;;;;9.12;73.27637;932.418;;;;
2023/04/20 09:23:59;;;;;;;2.5;1.5;;;;;;;8.98;74.9375;932.4297;;;;
2023/04/20 09:26:26;;;;;;;1.6;1.5;;;;;;;9.15;73.86426;932.3928;;;;
2023/04/20 09:28:52;;;;;;;1.6;1.5;;;;;;;8.93;74.66797;932.4175;;;;
2023/04/20 09:31:17;;;;;;;1.7;1.6;;;;;;;8.46;76.22266;932.3748;;;;
2023/04/20 09:33:44;;;;;;;1.8;1.7;;;;;;;8.58;75.91211;932.3789;;;;
2023/04/20 09:36:09;;;;;;;2;1.7;;;;;;;8.53;76.38184;932.4952;;;;
2023/04/20 09:38:35;;;;;;;1.9;1.7;;;;;;;8.68;75.94141;932.4847;;;;
2023/04/20 09:41:01;;;;;;;1.9;1.5;;;;;;;8.57;75.88965;932.4756;;;;
2023/04/20 09:43:25;;;;;;;1.8;1.6;;;;;;;8.59;73.88086;932.4543;;;;
2023/04/20 09:45:51;;;;;;;1.5;1.4;;;;;;;8.71;75.33203;932.373;;;;
2023/04/20 09:48:18;;;;;;;1.7;1.6;;;;;;;8.95;73.98828;932.2684;;;;
2023/04/20 09:50:43;;;;;;;2.6;1.7;;;;;;;8.96;75.10352;932.2216;;;;
2023/04/20 09:53:08;;;;;;;2.2;1.6;;;;;;;9.15;73.51074;932.2442;;;;
2023/04/20 09:55:37;;;;;;;1.5;1.4;;;;;;;9.38;73.29785;932.3195;;;;
2023/04/20 09:58:02;;;;;;;1.8;1.7;;;;;;;9.53;71.92285;932.2234;;;;
2023/04/20 10:00:29;;;;;;;2.3;1.4;;;;;;;9.5;71.31543;932.3052;;;;
2023/04/20 10:02:53;;;;;;;1.8;1.7;;;;;;;9.16;71.29297;932.3142;;;;
2023/04/20 10:05:18;;;;;;;1.9;1.6;;;;;;;9.33;71.17285;932.2144;;;;
2023/04/20 10:07:46;;;;;;;1.8;1.5;;;;;;;9.47;71.83203;932.212;;;;
2023/04/20 10:10:11;;;;;;;1.9;1.6;;;;;;;9.69;71.17578;932.1971;;;;
2023/04/20 10:12:38;;;;;;;1.8;1.7;;;;;;;9.73;72.00391;932.1527;;;;
2023/04/20 10:15:03;;;;;;;1.7;1.6;;;;;;;10;71.36328;932.1997;;;;
2023/04/20 10:17:28;;;;;;;1.8;1.7;;;;;;;10.48;70.40332;932.2211;;;;
2023/04/20 10:19:55;;;;;;;2;1.5;;;;;;;10.66;68.22852;932.0684;;;;
2023/04/20 10:22:20;;;;;;;1.7;1.6;;;;;;;11.04;66.7334;932.0149;;;;
2023/04/20 10:24:45;;;;;;;1.4;1.3;;;;;;;11.68;64.41699;931.9902;;;;
2023/04/20 10:27:11;;;;;;;1.6;1.5;;;;;;;12.22;62.18066;931.9969;;;;
2023/04/20 10:29:36;;;;;;;1.7;1.5;;;;;;;12.77;60.67676;932.017;;;;
2023/04/20 10:32:02;;;;;;;1.6;1.5;;;;;;;13.34;61.39844;931.9747;;;;
2023/04/20 10:34:28;;;;;;;1.5;1.4;;;;;;;13.94;57.88184;931.8848;;;;
2023/04/20 10:36:52;;;;;;;1.5;1.4;;;;;;;14.45;56.1416;931.9088;;;;
2023/04/20 10:39:20;;;;;;;2.1;1.5;;;;;;;14.42;56.2998;931.9675;;;;
2023/04/20 10:41:44;;;;;;;1.8;1.5;;;;;;;14.91;56.4082;931.9346;;;;
2023/04/20 10:44:10;;;;;;;1.5;1.4;;;;;;;15.77;53.31836;931.8925;;;;
2023/04/20 10:46:36;;;;;;;1.4;1.3;;;;;;;15.41;52.59277;931.902;;;;
2023/04/20 10:49:02;;;;;;;1.4;1.3;;;;;;;16;50.81543;931.7555;;;;
2023/04/20 10:51:27;;;;;;;1.4;1.3;;;;;;;16.56;50.95996;931.77;;;;
2023/04/20 10:53:52;;;;;;;1.5;1.1;;;;;;;16.98;47.09277;931.7684;;;;
2023/04/20 10:56:18;;;;;;;1.2;1.1;;;;;;;16.36;48.32227;931.7165;;;;
2023/04/20 10:58:46;;;;;;;1;0.9;;;;;;;16.22;47.16016;931.6965;;;;
2023/04/20 11:01:11;;;;;;;1.1;1;;;;;;;15.74;48.51855;931.6019;;;;
2023/04/20 11:03:38;;;;;;;1.1;1.1;;;;;;;14.54;53.84863;931.6688;;;;
2023/04/20 11:06:03;;;;;;;2;1.3;;;;;;;14.29;54.46289;931.6089;;;;
2023/04/20 11:08:28;;;;;;;1.3;1.2;;;;;;;14.5;51.25098;931.5829;;;;
2023/04/20 11:10:53;;;;;;;1.1;1;;;;;;;14.36;52.50195;931.6222;;;;
2023/04/20 11:13:18;;;;;;;1.3;1.2;;;;;;;13.93;55.03809;931.5697;;;;
2023/04/20 11:15:43;;;;;;;1.3;1.2;;;;;;;14.41;52.69141;931.6174;;;;
2023/04/20 11:18:08;;;;;;;1.3;1.2;;;;;;;14.77;52.76953;931.6355;;;;
2023/04/20 11:20:33;;;;;;;1;1;;;;;;;14.86;51.8584;931.5966;;;;
2023/04/20 11:23:03;;;;;;;2.1;1.9;;;;;;;14.44;53.06348;931.507;;;;
2023/04/20 11:25:26;;;;;;;1.3;1.2;;;;;;;14.52;52.6582;931.4872;;;;
2023/04/20 11:27:51;;;;;;;1.5;1.1;;;;;;;14.36;52.2373;931.4508;;;;
2023/04/20 11:30:18;;;;;;;1.7;1.6;;;;;;;14.17;53.76855;931.4863;;;;
2023/04/20 11:32:42;;;;;;;1;1;;;;;;;13.86;55.08789;931.5073;;;;
2023/04/20 11:35:13;;;;;;;1.5;1.4;;;;;;;13.34;57.31934;931.5494;;;;
2023/04/20 11:37:37;;;;;;;1.2;1.2;;;;;;;12.91;57.93066;931.5309;;;;
2023/04/20 11:40:03;;;;;;;1.7;1.4;;;;;;;12.8;57.39844;931.5605;;;;
2023/04/20 11:42:28;;;;;;;1.4;1.3;;;;;;;13.03;58.41602;931.538;;;;
2023/04/20 11:44:53;;;;;;;2.1;1.9;;;;;;;12.03;59.72559;931.5566;;;;
2023/04/20 11:47:18;;;;;;;1.5;1.4;;;;;;;12.06;62.16992;931.5516;;;;
2023/04/20 11:49:43;;;;;;;1.7;1.3;;;;;;;11.56;62.63672;931.5328;;;;
2023/04/20 11:52:10;;;;;;;2;1.2;;;;;;;10.85;66.54297;931.4504;;;;
2023/04/20 11:54:34;;;;;;;1.4;1.3;;;;;;;10.12;65.99805;931.5025;;;;
2023/04/20 11:57:01;;;;;;;1.5;1.4;;;;;;;10.54;69.04199;931.3972;;;;
2023/04/20 11:59:25;;;;;;;1.4;1.3;;;;;;;10.53;68.97168;931.4458;;;;
2023/04/20 12:01:51;;;;;;;1.5;1.4;;;;;;;10.38;66.00391;931.4369;;;;
2023/04/20 12:04:16;;;;;;;2;1.3;;;;;;;10.6;67.41895;931.4249;;;;
2023/04/20 12:06:43;;;;;;;1.5;1.4;;;;;;;11.17;63.87207;931.4265;;;;
2023/04/20 12:09:08;;;;;;;1.4;1.3;;;;;;;11.48;62.38477;931.3881;;;;
2023/04/20 12:11:34;;;;;;;1.7;1.4;;;;;;;11.53;62.84961;931.38;;;;
2023/04/20 12:13:59;;;;;;;2;1.4;;;;;;;11.98;62.24023;931.3364;;;;
2023/04/20 12:16:28;;;;;;;1.5;1.4;;;;;;;12.23;61.67871;931.288;;;;
2023/04/20 12:18:53;;;;;;;2.1;1.4;;;;;;;11.83;59.32031;931.2211;;;;
2023/04/20 12:21:19;;;;;;;1.5;1.4;;;;;;;11.28;63.83203;931.2454;;;;
2023/04/20 12:23:45;;;;;;;1.4;1.3;;;;;;;11.6;64.02734;931.1244;;;;
2023/04/20 12:26:10;;;;;;;1.8;1.5;;;;;;;12.12;62.70508;931.0453;;;;
2023/04/20 12:28:35;;;;;;;1.5;1.4;;;;;;;12.03;63.19727;931.0005;;;;
2023/04/20 12:31:02;;;;;;;1.7;1.6;;;;;;;12.35;61.98242;931.1066;;;;
2023/04/20 12:33:27;;;;;;;1.4;1.3;;;;;;;12.45;62.45605;931.0516;;;;
2023/04/20 12:35:53;;;;;;;1.7;1.6;;;;;;;12.8;60.26758;931.0388;;;;
2023/04/20 12:38:18;;;;;;;2.5;1.4;;;;;;;12.67;57.64551;930.9683;;;;
2023/04/20 12:40:44;;;;;;;2.1;1.3;;;;;;;12.73;58.74316;930.9908;;;;
2023/04/20 12:43:09;;;;;;;1.4;1.3;;;;;;;12.83;59.47949;930.9781;;;;
2023/04/20 12:45:37;;;;;;;1.7;1.6;;;;;;;12.68;58.83984;930.9042;;;;
2023/04/20 12:48:03;;;;;;;2.5;1.9;;;;;;;12.83;60.07617;930.8822;;;;
2023/04/20 12:50:28;;;;;;;2.4;1.5;;;;;;;12.98;59.99414;930.9523;;;;
2023/04/20 12:52:54;;;;;;;2.7;2.3;;;;;;;12.96;61.07129;930.8886;;;;
2023/04/20 12:55:19;;;;;;;1.7;1.6;;;;;;;12.76;63.24512;930.8906;;;;
2023/04/20 12:57:45;;;;;;;2.5;1.7;;;;;;;12.99;61.38477;930.7797;;;;
2023/04/20 13:00:13;;;;;;;1.7;1.6;;;;;;;13.62;58.13965;930.772;;;;
2023/04/20 13:02:37;;;;;;;2.2;1.6;;;;;;;13.91;56.38281;930.676;;;;
2023/04/20 13:05:03;;;;;;;2.6;1.9;;;;;;;13.66;56.9707;930.7514;;;;
2023/04/20 13:07:28;;;;;;;3.7;2.5;;;;;;;13.54;56.41504;930.7296;;;;
2023/04/20 13:09:54;;;;;;;1.6;1.5;;;;;;;13.49;59.70801;930.7727;;;;
2023/04/20 13:12:20;;;;;;;1.6;1.5;;;;;;;12.98;56.32031;930.7366;;;;
2023/04/20 13:14:44;;;;;;;1.7;1.6;;;;;;;11.92;59.83594;930.7035;;;;
2023/04/20 13:17:09;;;;;;;1.7;1.6;;;;;;;12.42;59.24023;930.6887;;;;
2023/04/20 13:19:35;;;;;;;2.2;1.7;;;;;;;12.74;57.72363;930.6744;;;;
2023/04/20 13:22:00;;;;;;;4.4;2.6;;;;;;;13.1;57.62305;930.749;;;;
2023/04/20 13:24:27;;;;;;;2.3;1.8;;;;;;;12.87;56.91406;930.7698;;;;
2023/04/20 13:26:52;;;;;;;2.5;1.6;;;;;;;12.86;60.11621;930.7108;;;;
2023/04/20 13:29:18;;;;;;;1.5;1.4;;;;;;;12.81;60.5332;930.7198;;;;
2023/04/20 13:31:43;;;;;;;1.3;1.2;;;;;;;13.47;57.63672;930.7498;;;;
2023/04/20 13:34:09;;;;;;;1.5;1.4;;;;;;;13.8;56.37988;930.6701;;;;
2023/04/20 13:36:34;;;;;;;1.9;1.4;;;;;;;14.01;55.42871;930.6951;;;;
2023/04/20 13:39:01;;;;;;;3;1.4;;;;;;;14.2;53.7832;930.6867;;;;
2023/04/20 13:41:26;;;;;;;1.5;1.4;;;;;;;14.08;52.73242;930.6542;;;;
2023/04/20 13:43:54;;;;;;;2.7;1.3;;;;;;;13.64;57.12988;930.6757;;;;
2023/04/20 13:46:19;;;;;;;2.2;1.4;;;;;;;14.07;57.55371;930.653;;;;
2023/04/20 13:48:44;;;;;;;1.8;1.6;;;;;;;13.63;57.94629;930.6127;;;;
2023/04/20 13:51:09;;;;;;;2.3;1.4;;;;;;;13.84;58.36523;930.5849;;;;
2023/04/20 13:53:34;;;;;;;2.2;1.5;;;;;;;13.58;57.21484;930.5883;;;;
2023/04/20 13:56:00;;;;;;;1.5;1.4;;;;;;;13.64;59.44141;930.5309;;;;
2023/04/20 13:58:25;;;;;;;1.4;1.3;;;;;;;13.8;58.16211;930.4694;;;;
2023/04/20 14:00:52;;;;;;;1.5;1.4;;;;;;;13.52;58.8623;930.5316;;;;
2023/04/20 14:03:18;;;;;;;1.5;1.4;;;;;;;13.42;58.43457;930.5969;;;;
2023/04/20 14:05:45;;;;;;;2.7;1.8;;;;;;;13.39;60.56738;930.5195;;;;
2023/04/20 14:08:10;;;;;;;1.6;1.5;;;;;;;13.47;60.0498;930.5739;;;;
2023/04/20 14:10:38;;;;;;;1.5;1.4;;;;;;;13.57;58.71875;930.5333;;;;
2023/04/20 14:13:02;;;;;;;2.1;1.4;;;;;;;13.67;58.73145;930.541;;;;
2023/04/20 14:15:30;;;;;;;2.5;1.4;;;;;;;13.83;58.53613;930.4426;;;;
2023/04/20 14:17:54;;;;;;;1.3;1.2;;;;;;;14.08;57.1875;930.4261;;;;
2023/04/20 14:20:23;;;;;;;2.7;1.5;;;;;;;13.86;58.20508;930.4775;;;;
2023/04/20 14:22:50;;;;;;;1.7;1.6;;;;;;;13.66;59.55859;930.473;;;;
2023/04/20 14:25:15;;;;;;;1.6;1.5;;;;;;;13.51;60.34375;930.4581;;;;
2023/04/20 14:27:45;;;;;;;2.1;1.5;;;;;;;13.43;60.27441;930.576;;;;
2023/04/20 14:30:09;;;;;;;1.6;1.5;;;;;;;13.22;60.7168;930.5714;;;;
2023/04/20 14:32:34;;;;;;;1.7;1.6;;;;;;;13.11;61.84961;930.5275;;;;
2023/04/20 14:34:59;;;;;;;1.8;1.6;;;;;;;13.12;62.25391;930.4945;;;;
2023/04/20 14:37:29;;;;;;;1.5;1.4;;;;;;;13.35;61.14844;930.4568;;;;
2023/04/20 14:39:54;;;;;;;1.5;1.4;;;;;;;13.48;60.63867;930.5242;;;;
2023/04/20 14:42:21;;;;;;;1.6;1.4;;;;;;;13.51;60.44629;930.5101;;;;
2023/04/20 14:44:46;;;;;;;1.5;1.4;;;;;;;13.37;60.33496;930.5374;;;;
2023/04/20 14:47:12;;;;;;;1.8;1.7;;;;;;;13.03;61.74609;930.5358;;;;
2023/04/20 14:49:38;;;;;;;1.8;1.4;;;;;;;12.78;62.30859;930.5349;;;;
2023/04/20 14:52:03;;;;;;;1.5;1.4;;;;;;;12.66;62.64551;930.5059;;;;
2023/04/20 14:54:28;;;;;;;1.9;1.7;;;;;;;12.43;63.2793;930.5488;;;;
2023/04/20 14:56:55;;;;;;;1.9;1.3;;;;;;;12.45;64.33594;930.5941;;;;
2023/04/20 14:59:20;;;;;;;1.6;1.5;;;;;;;12.41;64.04395;930.6558;;;;
2023/04/20 15:01:47;;;;;;;1.9;1.7;;;;;;;12.26;64.43555;930.6069;;;;
2023/04/20 15:04:12;;;;;;;1.7;1.6;;;;;;;12.41;64.39941;930.5296;;;;
2023/04/20 15:06:37;;;;;;;1.6;1.5;;;;;;;12.37;65;930.6273;;;;
2023/04/20 15:09:02;;;;;;;2.1;1.9;;;;;;;12.14;66.18164;930.6572;;;;
2023/04/20 15:11:29;;;;;;;1.6;1.5;;;;;;;12.05;65.27344;930.6867;;;;
2023/04/20 15:13:54;;;;;;;2.3;1.7;;;;;;;11.76;67.24609;930.6299;;;;
2023/04/20 15:16:22;;;;;;;1.7;1.6;;;;;;;11.71;67.93555;930.6064;;;;
2023/04/20 15:18:48;;;;;;;1.9;1.8;;;;;;;11.46;68.56152;930.6381;;;;
2023/04/20 15:21:12;;;;;;;2.1;1.9;;;;;;;11.19;70.79395;930.5691;;;;
2023/04/20 15:23:37;;;;;;;2.4;1.9;;;;;;;11.01;72.69629;930.627;;;;
2023/04/20 15:26:02;;;;;;;3.9;2.1;;;;;;;11.04;72.24316;930.6017;;;;
2023/04/20 15:28:29;;;;;;;2.1;1.9;;;;;;;10.88;71.89746;930.6627;;;;
2023/04/20 15:30:54;;;;;;;2.1;1.9;;;;;;;10.85;72.21191;930.7249;;;;
2023/04/20 15:33:20;;;;;;;2.3;2.1;;;;;;;11.01;72.00879;930.7178;;;;
2023/04/20 15:35:45;;;;;;;2.2;2;;;;;;;10.96;71.63672;930.7277;;;;
2023/04/20 15:38:11;;;;;;;2.3;2;;;;;;;10.98;70.70117;930.7833;;;;
2023/04/20 15:40:37;;;;;;;3.1;2;;;;;;;11.01;71.41602;930.7314;;;;
2023/04/20 15:43:04;;;;;;;3.5;2.6;;;;;;;11.09;71.16602;930.7106;;;;
2023/04/20 15:45:30;;;;;;;3.9;2.7;;;;;;;11;71.6084;930.7553;;;;
2023/04/20 15:47:56;;;;;;;3;2;;;;;;;10.86;71.20898;930.7352;;;;